Time;durP1;ratioP1;P1;durP2;ratioP2;P2;SDS_P1;SDS_P2;PMS_P1;PMS_P2;Temp;Humidity;BMP_temperature;BMP_pressure;BME280_temperature;BME280_humidity;BME280_pressure;Samples;Min_cycle;Max_cycle;Signal;HPM_P1;HPM_P2
2022/07/23 00:00:12;;;;;;;48.17;35.90;;;;;;;;;;5016121;28;20425;-76
2022/07/23 00:02:38;;;;;;;48.77;35.87;;;;;;;;;;5033436;28;20396;-78
2022/07/23 00:05:05;;;;;;;57.53;37.50;;;;;;;;;;5033565;28;20432;-78
2022/07/23 00:07:31;;;;;;;65.93;38.33;;;;;;;;;;5034239;28;20447;-82
2022/07/23 00:09:57;;;;;;;62.93;38.30;;;;;;;;;;5033264;28;20533;-76
2022/07/23 00:12:23;;;;;;;48.13;34.33;;;;;;;;;;5033094;28;20434;-79
2022/07/23 00:14:49;;;;;;;52.57;34.97;;;;;;;;;;5033082;28;20425;-80
2022/07/23 00:17:15;;;;;;;49.37;30.70;;;;;;;;;;5033248;28;20419;-76
2022/07/23 00:19:41;;;;;;;52.30;30.30;;;;;;;;;;5032998;28;20408;-80
2022/07/23 00:22:07;;;;;;;39.57;27.40;;;;;;;;;;5033107;28;20901;-78
2022/07/23 00:24:34;;;;;;;43.60;30.30;;;;;;;;;;5032846;28;20422;-78
2022/07/23 00:26:59;;;;;;;39.87;28.90;;;;;;;;;;5033135;28;20417;-77
2022/07/23 00:29:25;;;;;;;43.47;28.30;;;;;;;;;;5032899;28;20814;-80
2022/07/23 00:31:52;;;;;;;44.67;27.33;;;;;;;;;;5033065;28;20418;-79
2022/07/23 00:34:18;;;;;;;41.30;27.73;;;;;;;;;;5032585;28;20400;-78
2022/07/23 00:36:44;;;;;;;38.47;26.17;;;;;;;;;;5032101;28;20757;-78
2022/07/23 00:39:10;;;;;;;39.70;25.80;;;;;;;;;;5033020;28;20426;-80
2022/07/23 00:41:36;;;;;;;40.27;24.87;;;;;;;;;;5031553;28;20456;-76
2022/07/23 00:44:14;;;;;;;45.50;27.50;;;;;;;;;;5031420;28;20808;-76
2022/07/23 00:46:45;;;;;;;39.43;26.77;;;;;;;;;;5032954;28;20482;-78
2022/07/23 00:49:11;;;;;;;45.07;29.40;;;;;;;;;;5032835;28;20453;-80
2022/07/23 00:51:37;;;;;;;42.10;28.47;;;;;;;;;;5032718;28;20496;-79
2022/07/23 00:54:03;;;;;;;43.97;30.80;;;;;;;;;;5032518;28;20425;-80
2022/07/23 00:56:30;;;;;;;40.40;28.67;;;;;;;;;;5032799;28;20787;-81
2022/07/23 00:58:57;;;;;;;46.90;29.90;;;;;;;;;;5033173;28;20855;-79
2022/07/23 01:01:23;;;;;;;47.53;30.30;;;;;;;;;;5032767;28;20828;-78
2022/07/23 01:03:49;;;;;;;51.00;31.50;;;;;;;;;;5031203;28;20412;-80
2022/07/23 01:06:15;;;;;;;53.10;31.10;;;;;;;;;;5035221;28;20494;-80
2022/07/23 01:08:41;;;;;;;44.57;31.23;;;;;;;;;;5036452;28;20415;-79
2022/07/23 01:11:08;;;;;;;47.43;30.50;;;;;;;;;;5036239;28;20526;-79
2022/07/23 01:13:34;;;;;;;50.80;30.00;;;;;;;;;;5035896;28;20431;-79
2022/07/23 01:16:00;;;;;;;67.33;33.80;;;;;;;;;;5035017;28;20411;-79
2022/07/23 01:18:26;;;;;;;68.70;34.10;;;;;;;;;;5036245;28;20385;-81
2022/07/23 01:20:52;;;;;;;61.97;33.27;;;;;;;;;;5036197;28;20436;-79
2022/07/23 01:23:18;;;;;;;69.60;31.70;;;;;;;;;;5034568;28;20408;-77
2022/07/23 01:25:53;;;;;;;62.47;31.53;;;;;;;;;;5036197;28;20813;-77
2022/07/23 01:28:19;;;;;;;56.90;31.00;;;;;;;;;;5036035;28;20406;-77
2022/07/23 01:30:46;;;;;;;48.47;30.17;;;;;;;;;;5035917;28;20595;-79
2022/07/23 01:33:12;;;;;;;67.13;33.93;;;;;;;;;;5035597;28;20408;-81
2022/07/23 01:35:38;;;;;;;69.53;33.97;;;;;;;;;;5034712;28;20384;-76
2022/07/23 01:38:04;;;;;;;67.73;36.10;;;;;;;;;;5035659;28;20930;-79
2022/07/23 01:40:30;;;;;;;63.60;32.20;;;;;;;;;;5035818;28;20474;-79
2022/07/23 01:42:56;;;;;;;57.03;34.03;;;;;;;;;;5034371;28;20925;-80
2022/07/23 01:45:22;;;;;;;66.53;33.73;;;;;;;;;;5035943;28;20421;-77
2022/07/23 01:47:49;;;;;;;60.97;33.73;;;;;;;;;;5035823;28;20798;-80
2022/07/23 01:50:15;;;;;;;78.53;32.20;;;;;;;;;;5036130;28;20688;-81
2022/07/23 01:52:41;;;;;;;79.60;34.10;;;;;;;;;;5040003;28;20515;-79
2022/07/23 01:55:07;;;;;;;66.13;35.03;;;;;;;;;;5035815;28;20410;-78
2022/07/23 01:57:33;;;;;;;53.97;28.30;;;;;;;;;;5035791;28;20417;-78
2022/07/23 01:59:59;;;;;;;62.80;32.40;;;;;;;;;;5035463;28;20505;-80
2022/07/23 02:02:25;;;;;;;69.70;31.27;;;;;;;;;;5035326;28;20487;-78
2022/07/23 02:04:51;;;;;;;67.97;32.47;;;;;;;;;;5035371;28;20400;-80
2022/07/23 02:07:17;;;;;;;70.80;32.27;;;;;;;;;;5035277;28;20444;-81
2022/07/23 02:09:43;;;;;;;81.70;34.07;;;;;;;;;;5033972;28;20551;-78
2022/07/23 02:12:09;;;;;;;74.50;33.67;;;;;;;;;;5033753;28;20467;-78
2022/07/23 02:14:35;;;;;;;73.83;33.33;;;;;;;;;;5033958;28;20772;-78
2022/07/23 02:17:01;;;;;;;69.67;33.47;;;;;;;;;;5034705;28;20392;-79
2022/07/23 02:19:27;;;;;;;66.30;32.87;;;;;;;;;;5035192;28;20386;-79
2022/07/23 02:21:54;;;;;;;73.20;33.70;;;;;;;;;;5034156;28;20737;-79
2022/07/23 02:24:20;;;;;;;59.67;31.30;;;;;;;;;;5033635;28;20807;-78
2022/07/23 02:26:46;;;;;;;71.70;30.70;;;;;;;;;;5035106;28;20399;-82
2022/07/23 02:29:12;;;;;;;81.90;31.10;;;;;;;;;;5033756;28;20492;-80
2022/07/23 02:31:38;;;;;;;57.77;29.83;;;;;;;;;;5035399;28;20718;-80
2022/07/23 02:34:05;;;;;;;82.03;31.00;;;;;;;;;;5033266;28;20411;-78
2022/07/23 02:36:31;;;;;;;96.13;31.50;;;;;;;;;;5034759;28;20755;-80
2022/07/23 02:38:57;;;;;;;87.47;31.87;;;;;;;;;;5033427;28;20418;-77
2022/07/23 02:41:23;;;;;;;70.93;29.47;;;;;;;;;;5035037;28;20383;-82
2022/07/23 02:43:49;;;;;;;85.63;31.10;;;;;;;;;;5034231;28;20487;-78
2022/07/23 02:46:15;;;;;;;66.57;31.90;;;;;;;;;;5034731;28;20479;-81
2022/07/23 02:48:42;;;;;;;80.23;27.83;;;;;;;;;;5034615;28;20391;-78
2022/07/23 02:51:08;;;;;;;88.07;32.80;;;;;;;;;;5034601;28;20615;-80
2022/07/23 02:53:34;;;;;;;64.00;31.30;;;;;;;;;;5033108;28;20420;-80
2022/07/23 02:56:00;;;;;;;60.93;29.10;;;;;;;;;;5033327;28;20388;-80
2022/07/23 02:58:26;;;;;;;70.87;30.77;;;;;;;;;;5033281;28;20714;-79
2022/07/23 03:00:53;;;;;;;50.40;29.87;;;;;;;;;;5034376;28;20472;-77
2022/07/23 03:03:19;;;;;;;65.37;30.23;;;;;;;;;;5034058;28;20850;-76
2022/07/23 03:05:45;;;;;;;82.97;30.20;;;;;;;;;;5034365;28;20412;-80
2022/07/23 03:08:11;;;;;;;67.33;28.73;;;;;;;;;;5034583;28;20471;-78
2022/07/23 03:10:37;;;;;;;65.23;27.60;;;;;;;;;;5032931;28;20965;-80
2022/07/23 03:13:03;;;;;;;74.73;29.20;;;;;;;;;;5033871;28;20808;-79
2022/07/23 03:15:29;;;;;;;78.27;29.97;;;;;;;;;;5034369;28;20387;-78
2022/07/23 03:17:55;;;;;;;88.93;30.40;;;;;;;;;;5034119;28;20380;-83
2022/07/23 03:20:21;;;;;;;77.13;31.97;;;;;;;;;;5035011;28;20393;-78
2022/07/23 03:22:47;;;;;;;71.53;31.73;;;;;;;;;;5034941;28;20388;-79
2022/07/23 03:25:13;;;;;;;107.03;30.90;;;;;;;;;;5035017;28;20427;-79
2022/07/23 03:27:39;;;;;;;95.67;32.73;;;;;;;;;;5034065;28;20490;-82
2022/07/23 03:30:05;;;;;;;86.67;29.83;;;;;;;;;;5033756;28;20538;-78
2022/07/23 03:32:31;;;;;;;104.83;32.17;;;;;;;;;;5033631;28;20380;-82
2022/07/23 03:34:57;;;;;;;107.60;32.57;;;;;;;;;;5032565;28;21043;-79
2022/07/23 03:37:23;;;;;;;79.27;32.47;;;;;;;;;;5034096;28;20956;-82
2022/07/23 03:39:50;;;;;;;82.07;32.53;;;;;;;;;;5034310;28;20717;-83
2022/07/23 03:42:16;;;;;;;84.80;31.97;;;;;;;;;;5032086;28;20418;-81
2022/07/23 03:44:42;;;;;;;122.20;30.90;;;;;;;;;;5033368;28;20436;-78
2022/07/23 03:47:08;;;;;;;103.10;32.40;;;;;;;;;;5033514;28;20392;-82
2022/07/23 03:49:34;;;;;;;86.70;32.50;;;;;;;;;;5033545;28;20820;-80
2022/07/23 03:52:00;;;;;;;160.30;32.70;;;;;;;;;;5032235;28;20461;-78
2022/07/23 03:54:26;;;;;;;54.20;28.90;;;;;;;;;;5032092;28;20773;-77
2022/07/23 03:56:52;;;;;;;90.70;30.50;;;;;;;;;;5033570;28;20392;-81
2022/07/23 03:59:18;;;;;;;57.50;26.40;;;;;;;;;;5033391;28;20416;-79
2022/07/23 04:01:44;;;;;;;153.83;37.67;;;;;;;;;;5033499;28;20906;-77
2022/07/23 04:04:10;;;;;;;150.10;35.47;;;;;;;;;;5033096;28;20441;-80
2022/07/23 04:06:36;;;;;;;109.00;31.23;;;;;;;;;;5033307;28;20417;-79
2022/07/23 04:09:02;;;;;;;58.83;27.57;;;;;;;;;;5033253;28;20521;-79
2022/07/23 04:11:29;;;;;;;101.47;29.33;;;;;;;;;;5033288;28;20521;-81
2022/07/23 04:13:55;;;;;;;67.30;27.93;;;;;;;;;;5032811;28;20408;-80
2022/07/23 04:16:21;;;;;;;62.17;28.30;;;;;;;;;;5033155;28;20384;-80
2022/07/23 04:18:47;;;;;;;50.20;26.70;;;;;;;;;;5033163;28;20456;-80
2022/07/23 04:21:13;;;;;;;64.07;28.70;;;;;;;;;;5033313;28;20478;-80
2022/07/23 04:23:39;;;;;;;92.83;26.60;;;;;;;;;;5032925;28;20412;-78
2022/07/23 04:26:05;;;;;;;57.10;27.70;;;;;;;;;;5033110;28;20463;-82
2022/07/23 04:28:31;;;;;;;60.80;30.77;;;;;;;;;;5033031;28;20452;-78
2022/07/23 04:30:57;;;;;;;69.60;31.00;;;;;;;;;;5031433;28;20553;-82
2022/07/23 04:33:23;;;;;;;83.20;33.83;;;;;;;;;;5032666;28;20775;-78
2022/07/23 04:35:49;;;;;;;258.57;38.97;;;;;;;;;;5032841;28;20452;-79
2022/07/23 04:38:15;;;;;;;76.40;30.00;;;;;;;;;;5032904;28;20421;-80
2022/07/23 04:40:41;;;;;;;97.83;33.37;;;;;;;;;;5034648;28;20413;-82
2022/07/23 04:43:07;;;;;;;69.20;31.67;;;;;;;;;;5036390;28;20413;-76
2022/07/23 04:45:33;;;;;;;122.23;31.90;;;;;;;;;;5036991;28;20399;-81
2022/07/23 04:47:59;;;;;;;129.17;33.83;;;;;;;;;;5035938;28;20446;-81
2022/07/23 04:50:25;;;;;;;100.17;32.77;;;;;;;;;;5039183;28;20461;-76
2022/07/23 04:52:51;;;;;;;114.40;35.97;;;;;;;;;;5036291;28;20949;-78
2022/07/23 04:55:17;;;;;;;97.37;33.07;;;;;;;;;;5036603;28;20420;-80
2022/07/23 04:57:43;;;;;;;113.53;34.30;;;;;;;;;;5036920;28;20958;-81
2022/07/23 05:00:10;;;;;;;131.93;32.17;;;;;;;;;;5036673;28;20475;-80
2022/07/23 05:02:36;;;;;;;137.50;34.03;;;;;;;;;;5036304;28;20396;-81
2022/07/23 05:05:02;;;;;;;61.03;26.23;;;;;;;;;;5036453;28;20470;-81
2022/07/23 05:07:28;;;;;;;84.40;30.00;;;;;;;;;;5036259;28;20418;-81
2022/07/23 05:09:54;;;;;;;119.70;32.33;;;;;;;;;;5036639;28;20460;-81
2022/07/23 05:12:20;;;;;;;274.40;42.30;;;;;;;;;;5036320;28;20770;-80
2022/07/23 05:14:46;;;;;;;308.53;45.40;;;;;;;;;;5036318;28;20919;-81
2022/07/23 05:17:12;;;;;;;213.20;40.23;;;;;;;;;;5036356;28;20416;-81
2022/07/23 05:19:38;;;;;;;120.30;38.60;;;;;;;;;;5036280;28;20758;-83
2022/07/23 05:22:04;;;;;;;290.23;42.23;;;;;;;;;;5036352;28;20413;-78
2022/07/23 05:24:30;;;;;;;257.67;39.07;;;;;;;;;;5034617;28;20423;-79
2022/07/23 05:26:56;;;;;;;116.57;35.17;;;;;;;;;;5036111;28;20392;-79
2022/07/23 05:29:22;;;;;;;146.40;36.63;;;;;;;;;;5035755;28;20468;-81
2022/07/23 05:31:48;;;;;;;224.50;41.43;;;;;;;;;;5035950;28;20391;-77
2022/07/23 05:34:14;;;;;;;134.70;38.77;;;;;;;;;;5035661;28;20404;-81
2022/07/23 05:36:40;;;;;;;275.80;46.97;;;;;;;;;;5036065;28;20384;-77
2022/07/23 05:39:06;;;;;;;155.00;42.57;;;;;;;;;;5035798;28;20381;-80
2022/07/23 05:41:32;;;;;;;140.10;41.57;;;;;;;;;;5036038;28;20500;-78
2022/07/23 05:43:58;;;;;;;356.80;50.47;;;;;;;;;;5035444;28;20827;-80
2022/07/23 05:46:24;;;;;;;282.83;48.50;;;;;;;;;;5035764;28;20478;-75
2022/07/23 05:48:50;;;;;;;186.57;46.27;;;;;;;;;;5034593;28;20389;-81
2022/07/23 05:51:20;;;;;;;137.03;46.10;;;;;;;;;;5034967;28;20469;-77
2022/07/23 05:53:47;;;;;;;173.83;46.33;;;;;;;;;;5034751;28;20978;-76
2022/07/23 05:56:13;;;;;;;172.70;48.23;;;;;;;;;;5035649;28;20807;-77
2022/07/23 05:58:39;;;;;;;110.73;46.53;;;;;;;;;;5035635;28;20486;-79
2022/07/23 06:01:05;;;;;;;120.87;47.23;;;;;;;;;;5034599;28;20484;-81
2022/07/23 06:03:31;;;;;;;137.37;49.67;;;;;;;;;;5036694;28;20441;-78
2022/07/23 06:05:57;;;;;;;108.47;46.77;;;;;;;;;;5035373;28;20428;-78
2022/07/23 06:08:23;;;;;;;106.27;50.43;;;;;;;;;;5035453;28;20400;-79
2022/07/23 06:10:49;;;;;;;123.40;48.77;;;;;;;;;;5033961;28;20515;-79
2022/07/23 06:13:15;;;;;;;96.90;47.73;;;;;;;;;;5034859;28;20430;-81
2022/07/23 06:15:41;;;;;;;108.93;48.83;;;;;;;;;;5035449;28;20412;-80
2022/07/23 06:18:07;;;;;;;92.03;45.37;;;;;;;;;;5035331;28;20381;-78
2022/07/23 06:20:33;;;;;;;94.07;44.90;;;;;;;;;;5035238;28;20891;-78
2022/07/23 06:22:59;;;;;;;105.67;46.50;;;;;;;;;;5034685;28;20439;-78
2022/07/23 06:25:25;;;;;;;92.47;45.80;;;;;;;;;;5034923;28;20556;-79
2022/07/23 06:27:51;;;;;;;119.67;53.03;;;;;;;;;;5033678;28;20534;-78
2022/07/23 06:30:18;;;;;;;90.73;45.97;;;;;;;;;;5034732;28;20782;-78
2022/07/23 06:32:44;;;;;;;104.83;50.27;;;;;;;;;;5034766;28;20420;-80
2022/07/23 06:35:10;;;;;;;133.60;54.47;;;;;;;;;;5034891;28;20384;-77
2022/07/23 06:37:36;;;;;;;118.53;54.07;;;;;;;;;;5034772;28;20384;-79
2022/07/23 06:40:02;;;;;;;118.67;53.50;;;;;;;;;;5034795;28;20779;-79
2022/07/23 06:42:28;;;;;;;112.23;57.00;;;;;;;;;;5034243;28;20424;-80
2022/07/23 06:44:54;;;;;;;106.83;53.87;;;;;;;;;;5034591;28;20418;-79
2022/07/23 06:47:20;;;;;;;91.93;51.70;;;;;;;;;;5034671;28;20536;-80
2022/07/23 06:49:46;;;;;;;94.53;50.20;;;;;;;;;;5034712;28;20443;-77
2022/07/23 06:52:12;;;;;;;90.40;52.40;;;;;;;;;;5034549;28;20459;-77
2022/07/23 06:54:38;;;;;;;93.30;51.67;;;;;;;;;;5034585;28;20450;-78
2022/07/23 06:57:04;;;;;;;83.43;52.93;;;;;;;;;;5034744;28;20416;-80
2022/07/23 06:59:30;;;;;;;96.10;52.40;;;;;;;;;;5034310;28;20396;-81
2022/07/23 07:01:58;;;;;;;85.20;50.87;;;;;;;;;;5034224;28;20418;-79
2022/07/23 07:04:24;;;;;;;103.17;54.00;;;;;;;;;;5033810;28;20461;-79
2022/07/23 07:06:50;;;;;;;85.60;52.97;;;;;;;;;;5034290;28;20450;-79
2022/07/23 07:09:16;;;;;;;88.67;52.27;;;;;;;;;;5034101;28;20416;-80
2022/07/23 07:11:42;;;;;;;80.33;49.10;;;;;;;;;;5034128;28;20404;-80
2022/07/23 07:14:08;;;;;;;75.03;52.23;;;;;;;;;;5033784;28;20441;-76
2022/07/23 07:16:34;;;;;;;80.33;46.20;;;;;;;;;;5033026;28;20413;-80
2022/07/23 07:19:00;;;;;;;68.03;43.20;;;;;;;;;;5034084;28;20441;-79
2022/07/23 07:21:26;;;;;;;61.13;42.57;;;;;;;;;;5034060;28;20749;-76
2022/07/23 07:23:52;;;;;;;66.43;45.07;;;;;;;;;;5033481;28;20400;-77
2022/07/23 07:26:18;;;;;;;66.07;44.17;;;;;;;;;;5033763;28;20413;-78
2022/07/23 07:28:44;;;;;;;62.33;42.70;;;;;;;;;;5033055;28;20380;-76
2022/07/23 07:31:10;;;;;;;62.20;43.00;;;;;;;;;;5033762;28;20472;-77
2022/07/23 07:33:36;;;;;;;74.90;48.87;;;;;;;;;;5033652;28;20467;-79
2022/07/23 07:36:02;;;;;;;70.10;46.87;;;;;;;;;;5037504;28;20381;-77
2022/07/23 07:38:28;;;;;;;61.50;42.93;;;;;;;;;;5033624;28;20395;-79
2022/07/23 07:40:54;;;;;;;57.83;42.40;;;;;;;;;;5033655;28;20388;-78
2022/07/23 07:43:20;;;;;;;71.00;44.03;;;;;;;;;;5033351;28;20422;-77
2022/07/23 07:45:46;;;;;;;63.27;45.33;;;;;;;;;;5033686;28;20503;-78
2022/07/23 07:48:12;;;;;;;59.17;43.17;;;;;;;;;;5033619;28;20442;-77
2022/07/23 07:50:38;;;;;;;53.87;40.63;;;;;;;;;;5033405;28;20457;-76
2022/07/23 07:53:04;;;;;;;57.83;43.87;;;;;;;;;;5033012;28;20944;-77
2022/07/23 07:55:30;;;;;;;49.17;37.30;;;;;;;;;;5032514;28;20506;-79
2022/07/23 07:57:57;;;;;;;50.93;37.33;;;;;;;;;;5033642;28;20410;-76
2022/07/23 08:00:23;;;;;;;55.10;40.80;;;;;;;;;;5033408;28;20426;-79
2022/07/23 08:02:50;;;;;;;42.33;33.83;;;;;;;;;;5033065;28;20436;-80
2022/07/23 08:05:19;;;;;;;37.63;32.07;;;;;;;;;;5033619;28;20455;-78
2022/07/23 08:07:45;;;;;;;44.00;32.07;;;;;;;;;;5033370;28;20554;-78
2022/07/23 08:10:11;;;;;;;37.20;29.13;;;;;;;;;;5033313;28;20531;-76
2022/07/23 08:12:44;;;;;;;39.33;30.17;;;;;;;;;;5032937;28;20385;-77
2022/07/23 08:15:11;;;;;;;34.27;29.87;;;;;;;;;;5032841;28;20502;-76
2022/07/23 08:17:37;;;;;;;33.07;27.33;;;;;;;;;;5033206;28;20492;-78
2022/07/23 08:20:03;;;;;;;27.20;24.10;;;;;;;;;;5033149;28;20418;-78
2022/07/23 08:22:49;;;;;;;31.83;26.90;;;;;;;;;;5032597;28;20385;-77
2022/07/23 08:25:16;;;;;;;30.90;27.80;;;;;;;;;;5033044;28;20768;-76
2022/07/23 08:27:42;;;;;;;30.23;27.17;;;;;;;;;;5033103;28;20963;-77
2022/07/23 08:30:08;;;;;;;28.90;24.33;;;;;;;;;;5034419;28;20554;-78
2022/07/23 08:32:47;;;;;;;29.10;26.10;;;;;;;;;;5042943;28;20436;-79
2022/07/23 08:35:14;;;;;;;29.00;23.87;;;;;;;;;;5051827;28;20737;-80
2022/07/23 08:37:40;;;;;;;27.90;23.77;;;;;;;;;;5051920;28;20405;-78
2022/07/23 08:40:06;;;;;;;24.70;22.00;;;;;;;;;;5051714;28;20428;-79
2022/07/23 08:42:35;;;;;;;24.63;20.40;;;;;;;;;;5052400;28;20495;-80
2022/07/23 08:45:02;;;;;;;21.87;19.60;;;;;;;;;;5052921;28;20775;-77
2022/07/23 08:47:28;;;;;;;23.47;19.10;;;;;;;;;;5052689;28;20417;-77
2022/07/23 08:49:55;;;;;;;21.17;18.97;;;;;;;;;;5052615;28;20839;-80
2022/07/23 08:52:21;;;;;;;28.13;22.00;;;;;;;;;;5051835;28;20437;-77
2022/07/23 08:54:47;;;;;;;23.50;19.90;;;;;;;;;;5051979;28;20490;-79
2022/07/23 08:57:13;;;;;;;20.50;18.43;;;;;;;;;;5034247;28;20421;-81
2022/07/23 08:59:39;;;;;;;21.73;18.30;;;;;;;;;;5050777;28;20424;-78
2022/07/23 09:02:05;;;;;;;20.00;17.17;;;;;;;;;;5051739;28;20771;-80
2022/07/23 09:04:32;;;;;;;22.10;16.37;;;;;;;;;;5049865;28;20445;-79
2022/07/23 09:06:58;;;;;;;17.87;16.23;;;;;;;;;;5051588;28;20812;-79
2022/07/23 09:09:29;;;;;;;19.23;15.17;;;;;;;;;;5051438;28;20550;-77
2022/07/23 09:12:04;;;;;;;18.73;16.10;;;;;;;;;;5051711;28;20412;-76
2022/07/23 09:14:44;;;;;;;18.23;16.37;;;;;;;;;;5051214;28;20507;-76
2022/07/23 09:17:14;;;;;;;17.13;15.43;;;;;;;;;;5051769;28;20466;-79
2022/07/23 09:19:40;;;;;;;19.83;17.73;;;;;;;;;;5051584;28;20419;-77
2022/07/23 09:22:23;;;;;;;19.40;16.00;;;;;;;;;;5051343;28;20784;-76
2022/07/23 09:25:08;;;;;;;21.10;16.10;;;;;;;;;;5050059;28;20949;-78
2022/07/23 09:27:48;;;;;;;17.93;14.20;;;;;;;;;;5054108;28;20769;-76
2022/07/23 09:30:14;;;;;;;19.10;17.10;;;;;;;;;;5053459;28;21062;-76
2022/07/23 09:32:40;;;;;;;20.43;15.53;;;;;;;;;;5052981;28;20574;-76
2022/07/23 09:35:07;;;;;;;19.60;16.77;;;;;;;;;;5054773;28;20403;-75
2022/07/23 09:37:33;;;;;;;17.50;15.67;;;;;;;;;;5054795;28;20408;-75
2022/07/23 09:40:10;;;;;;;16.37;14.67;;;;;;;;;;5053482;28;20488;-76
2022/07/23 09:42:36;;;;;;;16.00;12.40;;;;;;;;;;5054496;28;20397;-75
2022/07/23 09:45:02;;;;;;;19.50;14.70;;;;;;;;;;5054857;28;20415;-76
2022/07/23 09:47:29;;;;;;;14.87;12.37;;;;;;;;;;5054699;28;20413;-76
2022/07/23 09:50:01;;;;;;;14.33;12.60;;;;;;;;;;5054442;28;20518;-75
2022/07/23 09:52:28;;;;;;;14.37;12.97;;;;;;;;;;5016150;28;1085359;-74
2022/07/23 09:55:04;;;;;;;13.90;10.40;;;;;;;;;;5055479;28;20190;-75
2022/07/23 09:57:31;;;;;;;19.83;11.73;;;;;;;;;;5055592;28;20780;-76
2022/07/23 09:59:58;;;;;;;14.80;11.00;;;;;;;;;;5055524;28;20763;-76
2022/07/23 10:02:24;;;;;;;14.07;12.60;;;;;;;;;;5053975;28;20417;-75
2022/07/23 10:04:51;;;;;;;15.50;12.37;;;;;;;;;;5055234;28;20869;-75
2022/07/23 10:07:17;;;;;;;13.83;12.43;;;;;;;;;;5055251;28;20423;-76
2022/07/23 10:09:44;;;;;;;15.73;11.67;;;;;;;;;;5055430;28;20560;-75
2022/07/23 10:14:59;;;;;;;14.80;11.80;;;;;;;;;;5055241;28;20498;-75
2022/07/23 10:17:26;;;;;;;13.13;10.97;;;;;;;;;;5054912;28;20885;-76
2022/07/23 10:19:52;;;;;;;19.23;12.37;;;;;;;;;;5053689;28;20412;-75
2022/07/23 10:22:21;;;;;;;14.83;9.80;;;;;;;;;;5054723;28;20558;-74
2022/07/23 10:25:05;;;;;;;14.10;9.70;;;;;;;;;;5054844;28;20940;-77
2022/07/23 10:27:54;;;;;;;11.80;10.60;;;;;;;;;;5054794;28;20444;-75
2022/07/23 10:30:26;;;;;;;12.17;11.00;;;;;;;;;;5008006;28;20464;-75
2022/07/23 10:32:57;;;;;;;13.10;9.40;;;;;;;;;;5054437;28;20478;-75
2022/07/23 10:35:30;;;;;;;11.80;9.60;;;;;;;;;;5054581;28;20427;-75
2022/07/23 10:37:57;;;;;;;9.27;8.20;;;;;;;;;;5054295;28;20412;-75
2022/07/23 10:40:23;;;;;;;10.00;9.00;;;;;;;;;;5054683;28;20413;-76
2022/07/23 10:42:55;;;;;;;11.20;10.10;;;;;;;;;;5054124;28;20952;-75
2022/07/23 10:45:29;;;;;;;12.03;9.10;;;;;;;;;;5054406;28;20420;-74
2022/07/23 10:47:56;;;;;;;8.97;8.07;;;;;;;;;;5054593;28;20423;-76
2022/07/23 10:50:34;;;;;;;12.03;9.20;;;;;;;;;;5053736;28;20475;-74
2022/07/23 10:53:11;;;;;;;11.73;8.97;;;;;;;;;;5041838;28;20513;-74
2022/07/23 10:55:37;;;;;;;11.40;10.20;;;;;;;;;;5054262;28;20467;-75
2022/07/23 10:58:04;;;;;;;11.33;8.63;;;;;;;;;;5036794;28;20422;-74
2022/07/23 11:00:30;;;;;;;9.70;8.63;;;;;;;;;;5034549;28;20417;-74
2022/07/23 11:03:00;;;;;;;10.00;9.00;;;;;;;;;;5034151;28;20441;-74
2022/07/23 11:05:47;;;;;;;13.17;9.13;;;;;;;;;;5034132;28;21028;-75
2022/07/23 11:08:15;;;;;;;10.00;8.53;;;;;;;;;;5034946;28;20492;-74
2022/07/23 11:10:46;;;;;;;9.17;8.03;;;;;;;;;;5053787;28;20856;-75
2022/07/23 11:13:30;;;;;;;9.63;8.30;;;;;;;;;;5053218;28;20443;-75
2022/07/23 11:16:05;;;;;;;13.10;8.90;;;;;;;;;;5054109;28;20407;-74
2022/07/23 11:18:40;;;;;;;9.93;8.17;;;;;;;;;;5053514;28;20752;-74
2022/07/23 11:24:03;;;;;;;7.13;6.43;;;;;;;;;;5053630;28;20438;-74
2022/07/23 11:26:41;;;;;;;12.00;8.87;;;;;;;;;;5053880;28;20409;-75
2022/07/23 11:29:25;;;;;;;9.00;6.67;;;;;;;;;;5053731;28;20415;-75
2022/07/23 11:32:01;;;;;;;7.17;6.37;;;;;;;;;;5053589;28;20416;-75
2022/07/23 11:34:34;;;;;;;6.57;6.00;;;;;;;;;;5053181;28;20501;-75
2022/07/23 11:37:01;;;;;;;7.40;6.70;;;;;;;;;;5053725;28;20551;-74
2022/07/23 11:39:28;;;;;;;8.10;7.30;;;;;;;;;;5053385;28;20416;-75
2022/07/23 11:41:54;;;;;;;7.17;5.80;;;;;;;;;;5053350;28;20416;-74
2022/07/23 11:44:27;;;;;;;7.43;6.70;;;;;;;;;;5052914;28;20428;-74
2022/07/23 11:46:57;;;;;;;10.23;6.27;;;;;;;;;;5056678;28;20505;-74
2022/07/23 11:49:23;;;;;;;7.83;6.10;;;;;;;;;;5053065;28;20408;-75
2022/07/23 11:52:08;;;;;;;9.60;6.07;;;;;;;;;;5051801;28;20435;-75
2022/07/23 11:54:35;;;;;;;7.03;6.43;;;;;;;;;;5052855;28;20435;-75
2022/07/23 11:57:01;;;;;;;6.27;5.67;;;;;;;;;;5053180;28;20745;-72
2022/07/23 11:59:29;;;;;;;7.83;5.57;;;;;;;;;;5053288;28;20769;-74
2022/07/23 12:01:58;;;;;;;6.50;5.87;;;;;;;;;;5053171;28;20408;-72
2022/07/23 12:04:25;;;;;;;7.63;6.23;;;;;;;;;;5052924;28;20859;-73
2022/07/23 12:06:51;;;;;;;9.57;6.70;;;;;;;;;;5053056;28;20412;-73
2022/07/23 12:09:17;;;;;;;8.03;6.97;;;;;;;;;;5052966;28;20412;-72
2022/07/23 12:12:01;;;;;;;7.10;6.00;;;;;;;;;;5051706;28;20467;-72
2022/07/23 12:14:27;;;;;;;7.87;5.87;;;;;;;;;;5052690;28;20499;-73
2022/07/23 12:17:09;;;;;;;6.37;5.40;;;;;;;;;;5053044;28;20468;-74
2022/07/23 12:19:35;;;;;;;5.20;4.47;;;;;;;;;;5052995;28;20416;-74
2022/07/23 12:22:02;;;;;;;11.73;5.30;;;;;;;;;;5052813;28;20822;-72
2022/07/23 12:24:28;;;;;;;5.73;4.97;;;;;;;;;;5052465;28;20436;-73
2022/07/23 12:27:10;;;;;;;5.20;4.60;;;;;;;;;;5052865;28;20471;-72
2022/07/23 12:29:36;;;;;;;6.53;4.60;;;;;;;;;;5052895;28;20814;-72
2022/07/23 12:32:03;;;;;;;5.00;4.40;;;;;;;;;;5052596;28;20404;-72
2022/07/23 12:34:29;;;;;;;4.57;4.07;;;;;;;;;;5052302;28;20494;-72
2022/07/23 12:36:55;;;;;;;8.03;4.83;;;;;;;;;;5051601;28;20502;-72
2022/07/23 12:39:31;;;;;;;4.53;4.13;;;;;;;;;;5051814;28;20884;-72
2022/07/23 12:41:57;;;;;;;5.50;4.17;;;;;;;;;;5052988;28;20416;-73
2022/07/23 12:44:23;;;;;;;3.73;3.23;;;;;;;;;;5052315;28;20436;-72
2022/07/23 12:46:55;;;;;;;6.83;4.30;;;;;;;;;;5052963;28;20424;-72
2022/07/23 12:49:27;;;;;;;5.00;3.80;;;;;;;;;;5052773;28;20855;-73
2022/07/23 12:51:53;;;;;;;5.73;3.80;;;;;;;;;;5052682;28;20515;-73
2022/07/23 12:54:27;;;;;;;3.50;3.17;;;;;;;;;;5052037;28;21079;-72
2022/07/23 12:56:53;;;;;;;5.60;3.77;;;;;;;;;;5052806;28;20415;-72
2022/07/23 12:59:20;;;;;;;3.50;3.30;;;;;;;;;;5052508;28;20419;-73
2022/07/23 13:01:54;;;;;;;3.77;2.93;;;;;;;;;;5054349;28;20408;-73
2022/07/23 13:04:21;;;;;;;5.00;3.80;;;;;;;;;;5056172;28;20419;-72
2022/07/23 13:06:47;;;;;;;4.87;2.80;;;;;;;;;;5056549;28;20919;-72
2022/07/23 13:09:14;;;;;;;5.23;3.20;;;;;;;;;;5056263;28;20487;-76
2022/07/23 13:11:40;;;;;;;5.03;3.07;;;;;;;;;;5056330;28;20824;-76
2022/07/23 13:14:06;;;;;;;3.50;3.20;;;;;;;;;;5055890;28;20425;-75
2022/07/23 13:16:33;;;;;;;2.43;2.23;;;;;;;;;;5056212;28;20416;-75
2022/07/23 13:19:00;;;;;;;3.23;2.80;;;;;;;;;;5056190;28;20436;-76
2022/07/23 13:21:26;;;;;;;4.00;2.97;;;;;;;;;;5055890;28;20503;-75
2022/07/23 13:23:52;;;;;;;3.73;3.43;;;;;;;;;;5055581;28;20451;-76
2022/07/23 13:26:18;;;;;;;4.77;3.17;;;;;;;;;;5055759;28;20780;-76
2022/07/23 13:28:44;;;;;;;3.30;2.90;;;;;;;;;;5055872;28;20416;-75
2022/07/23 13:31:10;;;;;;;7.27;3.30;;;;;;;;;;5055891;28;20472;-75
2022/07/23 13:33:36;;;;;;;5.37;3.27;;;;;;;;;;5055481;28;20435;-75
2022/07/23 13:36:03;;;;;;;4.07;2.40;;;;;;;;;;5055628;28;20409;-75
2022/07/23 13:38:29;;;;;;;5.30;4.00;;;;;;;;;;5055393;28;20409;-75
2022/07/23 13:40:55;;;;;;;4.83;3.40;;;;;;;;;;5055439;28;20440;-75
2022/07/23 13:43:22;;;;;;;3.67;3.37;;;;;;;;;;5055343;28;20440;-76
2022/07/23 13:45:49;;;;;;;3.33;2.57;;;;;;;;;;5055598;28;20443;-76
2022/07/23 13:48:15;;;;;;;2.90;2.70;;;;;;;;;;5055524;28;20480;-75
2022/07/23 13:50:42;;;;;;;3.10;2.80;;;;;;;;;;5055256;28;20815;-75
2022/07/23 13:53:09;;;;;;;3.30;2.97;;;;;;;;;;5055064;28;20501;-75
2022/07/23 13:55:35;;;;;;;3.50;2.80;;;;;;;;;;5055289;28;20418;-76
2022/07/23 13:58:02;;;;;;;3.27;2.97;;;;;;;;;;5055536;28;20906;-75
2022/07/23 14:00:30;;;;;;;4.63;3.30;;;;;;;;;;5055163;28;20443;-75
2022/07/23 14:02:56;;;;;;;3.70;3.20;;;;;;;;;;5054882;28;20440;-75
2022/07/23 14:05:22;;;;;;;6.87;3.23;;;;;;;;;;5055172;28;20428;-75
2022/07/23 14:07:49;;;;;;;3.10;2.83;;;;;;;;;;5055085;28;20416;-76
2022/07/23 14:10:15;;;;;;;10.63;3.50;;;;;;;;;;5054817;28;20471;-76
2022/07/23 14:12:41;;;;;;;3.20;2.90;;;;;;;;;;5053546;28;20409;-75
2022/07/23 14:15:08;;;;;;;5.80;3.27;;;;;;;;;;5054948;28;20503;-76
2022/07/23 14:17:35;;;;;;;5.00;2.47;;;;;;;;;;5055009;28;20408;-75
2022/07/23 14:20:01;;;;;;;4.03;2.90;;;;;;;;;;5054795;28;20502;-76
2022/07/23 14:22:27;;;;;;;4.10;2.83;;;;;;;;;;5054405;28;20820;-76
2022/07/23 14:24:53;;;;;;;3.20;2.97;;;;;;;;;;5054545;28;20462;-76
2022/07/23 14:27:19;;;;;;;2.83;2.63;;;;;;;;;;5054659;28;20412;-76